createdAt,value
2018-10-19T00:25:23.888Z,19.1
2018-10-19T00:26:13.733Z,19.1
2018-10-19T00:27:04.651Z,19.1
2018-10-19T00:27:53.846Z,19.1
2018-10-19T00:28:43.081Z,19.1
2018-10-19T00:29:34.270Z,19.1
2018-10-19T00:30:24.793Z,19.1
2018-10-19T00:31:13.792Z,19.1
2018-10-19T00:32:04.095Z,19.1
2018-10-19T00:32:53.393Z,19.1
2018-10-19T00:33:43.718Z,19.1
2018-10-19T00:34:34.076Z,19.1
2018-10-19T00:35:25.218Z,19.1
2018-10-19T00:36:14.260Z,19.1
2018-10-19T00:37:03.951Z,19.1
2018-10-19T00:37:54.575Z,19.1
2018-10-19T00:38:44.332Z,19.1
2018-10-19T00:39:34.090Z,19.1
2018-10-19T00:40:23.280Z,19.1
2018-10-19T00:41:15.214Z,19.1
2018-10-19T00:42:04.887Z,19.1
2018-10-19T00:42:54.406Z,19.1
2018-10-19T00:43:44.137Z,19.1
2018-10-19T00:44:34.754Z,19.1
2018-10-19T00:45:24.610Z,19.1
2018-10-19T00:46:14.895Z,19.1
2018-10-19T00:47:06.250Z,19.1
2018-10-19T00:47:54.512Z,19.1
2018-10-19T00:48:45.337Z,19.1
2018-10-19T00:49:35.170Z,19.1
2018-10-19T00:50:25.183Z,19.1
2018-10-19T00:51:17.352Z,19.1
2018-10-19T00:52:04.997Z,19.1
2018-10-19T00:52:55.237Z,19.1
2018-10-19T00:53:45.157Z,19.1
2018-10-19T00:54:36.069Z,19.1
2018-10-19T00:55:25.536Z,19.1
2018-10-19T00:56:15.925Z,19.1
2018-10-19T00:57:06.016Z,19.1
2018-10-19T00:57:56.040Z,19.1
2018-10-19T00:58:46.121Z,19.1
2018-10-19T00:59:36.166Z,19.1
2018-10-19T01:00:26.011Z,19.1
2018-10-19T01:01:15.396Z,19.1
2018-10-19T01:02:06.937Z,19.1
2018-10-19T01:02:56.083Z,19.1
2018-10-19T01:03:45.353Z,19.1
2018-10-19T01:04:35.724Z,19.1
2018-10-19T01:05:26.073Z,19.1
2018-10-19T01:06:16.988Z,19.1
2018-10-19T01:07:06.728Z,19.1
2018-10-19T01:07:56.792Z,19.1
2018-10-19T01:08:46.845Z,19.1
2018-10-19T01:09:36.631Z,19.1
2018-10-19T01:10:27.214Z,19.1
2018-10-19T01:11:19.108Z,19.1
2018-10-19T01:12:07.090Z,19.1
2018-10-19T01:12:56.876Z,19.1
2018-10-19T01:13:46.681Z,19.1
2018-10-19T01:14:37.007Z,19.1
2018-10-19T01:15:27.442Z,19.1
2018-10-19T01:16:17.419Z,19.1
2018-10-19T01:17:08.928Z,19.1
2018-10-19T01:17:57.635Z,19.1
2018-10-19T01:18:47.065Z,19.1
2018-10-19T01:19:37.644Z,19.1
2018-10-19T01:20:27.755Z,19.1
2018-10-19T01:21:18.210Z,19.1
2018-10-19T01:22:08.104Z,19.1
2018-10-19T01:22:57.551Z,19.1
2018-10-19T01:23:47.947Z,19.1
2018-10-19T01:24:37.742Z,19.1
2018-10-19T01:25:28.624Z,19.1
2018-10-19T01:26:18.161Z,19.1
2018-10-19T01:27:08.359Z,19.1
2018-10-19T01:27:57.392Z,19.1
2018-10-19T01:28:48.364Z,19.1
2018-10-19T01:29:38.441Z,19.1
2018-10-19T01:30:28.482Z,19.1
2018-10-19T01:31:18.816Z,19.1
2018-10-19T01:32:08.216Z,19.1
2018-10-19T01:32:59.091Z,19.1
2018-10-19T01:33:48.699Z,19.1
2018-10-19T01:34:38.799Z,19.1
2018-10-19T01:35:28.578Z,19.1
2018-10-19T01:36:18.936Z,19.1
2018-10-19T01:37:08.114Z,19.1
2018-10-19T01:37:59.648Z,19.1
2018-10-19T01:38:49.080Z,19.1
2018-10-19T01:39:38.999Z,19.1
2018-10-19T01:40:29.449Z,19.1
2018-10-19T01:41:19.935Z,19.1
2018-10-19T01:42:09.520Z,19.1
2018-10-19T01:42:59.683Z,19.1
2018-10-19T01:43:48.867Z,19.1
2018-10-19T01:44:38.116Z,19.1
2018-10-19T01:45:29.010Z,19.1
2018-10-19T01:46:19.623Z,19.1
2018-10-19T01:47:10.511Z,19.1
2018-10-19T01:47:58.905Z,19.1
2018-10-19T01:48:49.555Z,19.1
2018-10-19T01:49:39.287Z,19.1
2018-10-19T01:50:29.376Z,19.1
2018-10-19T01:51:20.491Z,19.1
2018-10-19T01:52:11.051Z,19.1
2018-10-19T01:52:59.812Z,19.1
2018-10-19T01:53:49.305Z,19.1
2018-10-19T01:54:39.995Z,19.1
2018-10-19T01:55:30.109Z,19.1
2018-10-19T01:56:20.895Z,19.1
2018-10-19T01:57:11.804Z,19.1
2018-10-19T01:58:00.534Z,19.1
2018-10-19T01:58:50.056Z,19.1
2018-10-19T01:59:40.992Z,19.1
2018-10-19T02:00:30.465Z,19.1
2018-10-19T02:01:20.734Z,19.1
2018-10-19T02:02:10.504Z,19.1
2018-10-19T02:03:00.925Z,19.1
2018-10-19T02:03:50.257Z,19.1
2018-10-19T02:04:41.688Z,19.1
2018-10-19T02:05:30.935Z,19.1
2018-10-19T02:06:21.462Z,19.1
2018-10-19T02:07:10.355Z,19.1
2018-10-19T02:08:01.029Z,19.1
2018-10-19T02:08:51.619Z,19.1
2018-10-19T02:09:41.095Z,19.1
2018-10-19T02:10:31.389Z,19.1
2018-10-19T02:11:21.051Z,19.1
2018-10-19T02:12:11.511Z,19.1
2018-10-19T02:13:01.579Z,19.1
2018-10-19T02:13:51.371Z,19.1
2018-10-19T02:14:40.876Z,19.1
2018-10-19T02:15:31.826Z,19.1
2018-10-19T02:16:20.775Z,19.1
2018-10-19T02:17:12.303Z,19.1
2018-10-19T02:18:01.402Z,19.1
2018-10-19T02:18:51.782Z,19.1
2018-10-19T02:19:40.971Z,19.1
2018-10-19T02:20:32.152Z,19.1
2018-10-19T02:21:21.989Z,19.1
2018-10-19T02:22:12.269Z,19.1
2018-10-19T02:23:03.471Z,19.1
2018-10-19T02:23:52.413Z,19.1
2018-10-19T02:24:42.181Z,19.1
2018-10-19T02:25:31.956Z,19.1
2018-10-19T02:26:21.981Z,19.1
2018-10-19T02:27:14.858Z,19.1
2018-10-19T02:28:02.763Z,19.1
2018-10-19T02:28:52.259Z,19.1
2018-10-19T02:29:43.110Z,19.1
2018-10-19T02:30:31.273Z,19.1
2018-10-19T02:31:22.538Z,19.1
2018-10-19T02:32:13.319Z,19.1
2018-10-19T02:33:03.789Z,19.1
2018-10-19T02:33:52.307Z,19.1
2018-10-19T02:34:43.006Z,19.1
2018-10-19T02:35:32.203Z,19.1
2018-10-19T02:36:23.659Z,19.1
2018-10-19T02:37:13.045Z,19.1
2018-10-19T02:38:03.207Z,19.1
2018-10-19T02:38:53.713Z,19.1
2018-10-19T02:39:43.635Z,19.1
2018-10-19T02:40:33.675Z,19.1
2018-10-19T02:41:24.577Z,19.1
2018-10-19T02:42:13.210Z,19.1
2018-10-19T02:43:03.501Z,19.1
2018-10-19T02:43:53.033Z,19.1
2018-10-19T02:44:43.227Z,19.1
2018-10-19T02:45:33.545Z,19.1
2018-10-19T02:46:23.922Z,19.1
2018-10-19T02:47:15.187Z,19.1
2018-10-19T02:48:03.702Z,19.1
2018-10-19T02:48:53.487Z,19.1
2018-10-19T02:49:43.816Z,19.1
2018-10-19T02:50:34.078Z,19.1
2018-10-19T02:51:25.280Z,19.1
2018-10-19T02:52:14.810Z,19.1
2018-10-19T02:53:05.474Z,19.1
2018-10-19T02:53:54.375Z,19.1
2018-10-19T02:54:43.862Z,19.1
2018-10-19T02:55:33.949Z,19.1
2018-10-19T02:56:24.275Z,19.1
2018-10-19T02:57:15.200Z,19.1
2018-10-19T02:58:05.480Z,19.1
2018-10-19T02:58:54.509Z,19.1
2018-10-19T02:59:44.769Z,19.1
2018-10-19T03:00:34.285Z,19.1
2018-10-19T03:01:24.659Z,19.1
2018-10-19T03:02:14.692Z,19.1
2018-10-19T03:03:05.975Z,19.1
2018-10-19T03:03:55.963Z,19.1
2018-10-19T03:04:45.189Z,19.1
2018-10-19T03:05:35.793Z,19.1
2018-10-19T03:06:24.416Z,19.1
2018-10-19T03:07:15.689Z,19.1
2018-10-19T03:08:05.422Z,19.1
2018-10-19T03:08:56.072Z,19.1
2018-10-19T03:09:45.679Z,19.1
2018-10-19T03:10:35.940Z,19.1
2018-10-19T03:11:26.605Z,19.1
2018-10-19T03:12:16.157Z,19.1
2018-10-19T03:13:05.511Z,19.1
2018-10-19T03:13:56.071Z,19.1
2018-10-19T03:14:45.915Z,19.1
2018-10-19T03:15:36.005Z,19.1
2018-10-19T03:16:26.352Z,19.1
2018-10-19T03:17:18.053Z,19.1
2018-10-19T03:18:06.237Z,19.1
2018-10-19T03:18:57.063Z,19.1
2018-10-19T03:19:46.926Z,19.1
2018-10-19T03:20:35.915Z,19.1
2018-10-19T03:21:25.984Z,19.1
2018-10-19T03:22:15.507Z,19.1
2018-10-19T03:23:08.563Z,19.1
2018-10-19T03:23:57.153Z,19.1
2018-10-19T03:24:46.447Z,19.1
2018-10-19T03:25:37.873Z,19.1
2018-10-19T03:26:27.543Z,19.1
2018-10-19T03:27:19.427Z,19.1
2018-10-19T03:28:07.172Z,19.1
2018-10-19T03:28:57.027Z,19.1
2018-10-19T03:29:47.137Z,19.1
2018-10-19T03:30:37.374Z,19.1
2018-10-19T03:31:27.277Z,19.1
2018-10-19T03:32:16.415Z,19.1
2018-10-19T03:33:08.502Z,19.1
2018-10-19T03:33:57.454Z,19.1
2018-10-19T03:34:47.932Z,19.1
2018-10-19T03:35:37.185Z,19.1
2018-10-19T03:36:27.444Z,19.1
2018-10-19T03:37:17.584Z,19.1
2018-10-19T03:38:07.374Z,19.1
2018-10-19T03:38:58.431Z,19.1
2018-10-19T03:39:47.796Z,19.1
2018-10-19T03:40:38.116Z,19.1
2018-10-19T03:41:27.683Z,19.1
2018-10-19T03:42:17.414Z,19.1
2018-10-19T03:43:07.710Z,19.1
2018-10-19T03:43:58.053Z,19.1
2018-10-19T03:44:48.471Z,19.1
2018-10-19T03:45:37.904Z,19.1
2018-10-19T03:46:28.571Z,19.1
2018-10-19T03:47:18.934Z,19.1
2018-10-19T03:48:08.464Z,19.1
2018-10-19T03:48:58.387Z,19.1
2018-10-19T03:49:48.787Z,19.1
2018-10-19T03:50:38.903Z,19.1
2018-10-19T03:51:28.077Z,19.1
2018-10-19T03:52:18.345Z,19.1
2018-10-19T03:53:10.439Z,19
2018-10-19T03:53:58.867Z,19.1
2018-10-19T03:54:48.328Z,19.1
2018-10-19T03:55:39.480Z,19.1
2018-10-19T03:56:29.542Z,19.1
2018-10-19T03:57:21.264Z,19.1
2018-10-19T03:58:09.375Z,19.1
2018-10-19T03:58:59.305Z,19.1
2018-10-19T03:59:49.557Z,19
2018-10-19T04:00:39.268Z,19.1
2018-10-19T04:01:29.678Z,19.1
2018-10-19T04:02:19.745Z,19.1
2018-10-19T04:03:11.763Z,19.1
2018-10-19T04:03:59.591Z,19.1
2018-10-19T04:04:49.948Z,19.1
2018-10-19T04:05:40.447Z,19
2018-10-19T04:06:29.750Z,19.1
2018-10-19T04:07:19.795Z,19.1
2018-10-19T04:08:09.555Z,19
2018-10-19T04:09:00.422Z,19
2018-10-19T04:09:50.015Z,19.1
2018-10-19T04:10:40.311Z,19.1
2018-10-19T04:11:30.345Z,19
2018-10-19T04:12:20.140Z,19
2018-10-19T04:13:10.184Z,19.1
2018-10-19T04:14:00.575Z,19.1
2018-10-19T04:14:50.057Z,19
2018-10-19T04:15:41.243Z,19.1
2018-10-19T04:16:30.743Z,19.1
2018-10-19T04:17:20.997Z,19
2018-10-19T04:18:11.138Z,19
2018-10-19T04:19:00.425Z,19
2018-10-19T04:19:50.465Z,19
2018-10-19T04:20:40.865Z,19
2018-10-19T04:21:31.375Z,19.1
2018-10-19T04:22:20.869Z,19
2018-10-19T04:23:12.739Z,19
2018-10-19T04:24:01.289Z,19
2018-10-19T04:24:51.101Z,19
2018-10-19T04:25:41.714Z,19.1
2018-10-19T04:26:32.294Z,19
2018-10-19T04:27:23.447Z,19
2018-10-19T04:28:11.278Z,19
2018-10-19T04:29:02.429Z,19
2018-10-19T04:29:52.043Z,19
2018-10-19T04:30:42.044Z,19
2018-10-19T04:31:31.867Z,19
2018-10-19T04:32:21.037Z,19
2018-10-19T04:33:13.113Z,19
2018-10-19T04:34:01.473Z,19.1
2018-10-19T04:34:52.174Z,19
2018-10-19T04:35:41.326Z,19.1
2018-10-19T04:36:32.201Z,19.1
2018-10-19T04:54:43.269Z,19
2018-10-19T04:55:34.149Z,19
2018-10-19T04:56:23.360Z,19
2018-10-19T04:57:16.468Z,19
2018-10-19T04:58:03.793Z,19
2018-10-19T04:58:53.880Z,19
2018-10-19T04:59:43.322Z,19
2018-10-19T05:00:34.275Z,19
2018-10-19T05:01:24.065Z,19
2018-10-19T05:02:14.421Z,19
2018-10-19T05:03:05.438Z,19
2018-10-19T05:03:53.910Z,19
2018-10-19T05:04:45.121Z,19
2018-10-19T05:05:35.983Z,19
2018-10-19T05:06:25.679Z,19
2018-10-19T05:07:14.786Z,19
2018-10-19T05:08:05.811Z,19
2018-10-19T05:08:54.037Z,19
2018-10-19T05:09:44.628Z,19
2018-10-19T05:10:34.216Z,19
2018-10-19T05:11:25.586Z,19
2018-10-19T05:12:14.875Z,19
2018-10-19T05:13:05.672Z,19
2018-10-19T05:13:56.013Z,19
2018-10-19T05:14:45.292Z,19
2018-10-19T05:15:34.598Z,19
2018-10-19T05:16:25.829Z,19
2018-10-19T05:17:16.418Z,19
2018-10-19T05:18:05.455Z,19
2018-10-19T05:18:55.363Z,19
2018-10-19T05:19:45.927Z,19
2018-10-19T05:20:35.471Z,19
2018-10-19T05:21:25.632Z,19
2018-10-19T05:22:15.864Z,19
2018-10-19T05:23:06.873Z,19
2018-10-19T05:23:56.327Z,19
2018-10-19T05:24:48.143Z,19
2018-10-19T05:25:35.937Z,19
2018-10-19T05:26:26.350Z,19
2018-10-19T05:27:15.998Z,19
2018-10-19T05:28:05.327Z,19
2018-10-19T05:28:56.114Z,19
2018-10-19T05:29:45.773Z,19
2018-10-19T05:30:36.588Z,19
2018-10-19T05:31:26.724Z,19
2018-10-19T05:32:18.055Z,19
2018-10-19T05:33:07.795Z,19
2018-10-19T05:33:56.374Z,19
2018-10-19T05:34:47.162Z,19
2018-10-19T05:35:37.209Z,19
2018-10-19T05:36:26.966Z,19
2018-10-19T05:37:17.283Z,19
2018-10-19T05:38:07.934Z,19
2018-10-19T05:38:56.563Z,19
2018-10-19T05:39:47.202Z,19
2018-10-19T05:40:37.003Z,19
2018-10-19T05:41:27.363Z,19
2018-10-19T05:42:17.289Z,19
2018-10-19T05:43:07.784Z,19
2018-10-19T05:43:57.292Z,19
2018-10-19T05:44:47.388Z,19
2018-10-19T05:45:36.753Z,19
2018-10-19T05:46:27.371Z,19
2018-10-19T05:47:19.287Z,19
2018-10-19T05:48:07.177Z,19
2018-10-19T05:48:57.525Z,19
2018-10-19T05:49:47.887Z,19
2018-10-19T05:50:37.665Z,19
2018-10-19T05:51:28.504Z,19
2018-10-19T05:52:18.894Z,19
2018-10-19T05:53:09.842Z,19
2018-10-19T05:53:58.447Z,19
2018-10-19T05:54:47.355Z,19
2018-10-19T05:55:36.884Z,19
2018-10-19T05:56:28.098Z,19
2018-10-19T05:57:17.605Z,19
2018-10-19T05:58:07.935Z,19
2018-10-19T05:58:59.199Z,19
2018-10-19T05:59:48.298Z,19
2018-10-19T06:00:38.620Z,19
2018-10-19T06:01:27.829Z,19
2018-10-19T06:02:20.199Z,19
2018-10-19T06:03:09.020Z,19
2018-10-19T06:03:58.697Z,19
2018-10-19T06:04:48.808Z,19
2018-10-19T06:05:38.554Z,19
2018-10-19T06:06:28.262Z,19
2018-10-19T06:07:18.007Z,19
2018-10-19T06:08:09.967Z,19
2018-10-19T06:08:58.444Z,19
2018-10-19T06:09:49.386Z,19
2018-10-19T06:10:39.399Z,18.9
2018-10-19T06:11:28.647Z,19
2018-10-19T06:12:18.762Z,18.9
2018-10-19T06:13:09.252Z,18.9
2018-10-19T06:14:00.258Z,19
2018-10-19T06:14:49.187Z,19
2018-10-19T06:15:39.788Z,19
2018-10-19T06:16:29.852Z,19
2018-10-19T06:17:20.874Z,19
2018-10-19T06:18:09.102Z,19
2018-10-19T06:18:59.714Z,18.9
2018-10-19T06:19:50.346Z,18.9
2018-10-19T06:20:40.408Z,19
2018-10-19T06:21:29.984Z,18.9
2018-10-19T06:22:20.515Z,18.9
2018-10-19T06:23:11.590Z,19
2018-10-19T06:23:59.818Z,19
2018-10-19T06:24:50.462Z,19
2018-10-19T06:25:39.647Z,19
2018-10-19T06:26:32.435Z,19
2018-10-19T06:27:20.341Z,19
2018-10-19T06:28:10.137Z,18.9
2018-10-19T06:29:00.891Z,19
2018-10-19T06:29:50.587Z,19
2018-10-19T06:30:40.315Z,19
2018-10-19T06:31:30.650Z,19
2018-10-19T06:32:21.091Z,18.9
2018-10-19T06:33:10.731Z,19
2018-10-19T06:34:00.574Z,19
2018-10-19T06:34:50.599Z,18.9
2018-10-19T06:35:40.977Z,19
2018-10-19T06:36:30.739Z,19
2018-10-19T06:37:21.355Z,19
2018-10-19T06:38:11.894Z,19
2018-10-19T06:39:01.492Z,19
2018-10-19T06:39:50.994Z,19
2018-10-19T06:40:42.298Z,19
2018-10-19T06:41:31.673Z,19
2018-10-19T06:42:22.295Z,19
2018-10-19T06:43:10.757Z,18.9
2018-10-19T06:44:03.129Z,18.9
2018-10-19T06:44:51.460Z,19
2018-10-19T06:45:41.266Z,19
2018-10-19T06:46:32.054Z,19
2018-10-19T06:47:24.018Z,19
2018-10-19T06:48:12.153Z,19
2018-10-19T06:49:02.543Z,19
2018-10-19T06:49:51.972Z,19
2018-10-19T06:50:41.429Z,19
2018-10-19T06:51:31.718Z,19
2018-10-19T06:52:22.236Z,19
2018-10-19T06:53:14.545Z,19
2018-10-19T06:54:02.047Z,19
2018-10-19T06:54:51.790Z,19
2018-10-19T06:55:41.911Z,19
2018-10-19T06:56:32.777Z,19
2018-10-19T06:57:22.855Z,18.9
2018-10-19T06:58:13.481Z,19
2018-10-19T06:59:05.165Z,19
2018-10-19T06:59:52.812Z,19
2018-10-19T07:00:42.476Z,19
2018-10-19T07:01:32.225Z,19
2018-10-19T07:02:23.550Z,19
2018-10-19T07:03:13.255Z,19
2018-10-19T07:04:03.320Z,19
2018-10-19T07:04:52.849Z,19
2018-10-19T07:05:44.502Z,19
2018-10-19T07:06:33.517Z,19
2018-10-19T07:07:22.722Z,19
2018-10-19T07:08:15.256Z,19
2018-10-19T07:09:03.685Z,19
2018-10-19T07:09:53.187Z,19
2018-10-19T07:10:42.982Z,19
2018-10-19T07:11:32.710Z,19
2018-10-19T07:12:23.923Z,19
2018-10-19T07:13:13.700Z,19
2018-10-19T07:14:05.432Z,19
2018-10-19T07:14:54.164Z,19
2018-10-19T07:15:43.880Z,19
2018-10-19T07:16:34.598Z,19
2018-10-19T07:17:24.679Z,19
2018-10-19T07:18:13.652Z,19
2018-10-19T07:19:05.408Z,19
2018-10-19T07:19:54.370Z,19
2018-10-19T07:20:44.111Z,19
2018-10-19T07:21:34.729Z,19
2018-10-19T07:22:24.745Z,19
2018-10-19T07:23:15.139Z,19
2018-10-19T07:24:04.574Z,19
2018-10-19T07:24:54.934Z,19.1
2018-10-19T07:25:44.654Z,19
2018-10-19T07:26:35.081Z,19.1
2018-10-19T07:27:24.774Z,19.1
2018-10-19T07:28:15.136Z,19.1
2018-10-19T07:29:05.587Z,19.1
2018-10-19T07:29:55.237Z,19.1
2018-10-19T07:30:44.768Z,19.1
2018-10-19T07:31:35.676Z,19.1
2018-10-19T07:32:25.430Z,19.1
2018-10-19T07:33:15.747Z,19.1
2018-10-19T07:34:05.938Z,19.1
2018-10-19T07:34:55.404Z,19.1
2018-10-19T07:35:45.581Z,19.1
2018-10-19T07:36:37.726Z,19.1
2018-10-19T07:37:25.800Z,19.1
2018-10-19T07:38:17.105Z,19.1
2018-10-19T07:39:05.113Z,19.1
2018-10-19T07:39:55.854Z,19.1
2018-10-19T07:40:45.844Z,19.1
2018-10-19T07:41:35.841Z,19.1
2018-10-19T07:42:28.318Z,19.1
2018-10-19T07:43:16.226Z,19.1
2018-10-19T07:44:08.051Z,19.1
2018-10-19T07:44:55.825Z,19
2018-10-19T07:45:46.058Z,19
2018-10-19T07:46:35.877Z,18.9
2018-10-19T07:47:27.644Z,18.9
2018-10-19T07:48:19.084Z,18.9
2018-10-19T07:49:06.368Z,18.9
2018-10-19T07:49:56.091Z,18.9
2018-10-19T07:50:46.487Z,18.9
2018-10-19T07:51:36.538Z,18.9
2018-10-19T07:52:26.610Z,18.9
2018-10-19T07:53:17.645Z,18.9
2018-10-19T07:54:08.492Z,18.9
2018-10-19T07:54:57.380Z,18.9
2018-10-19T07:55:46.040Z,18.9
2018-10-19T07:56:36.350Z,18.8
2018-10-19T07:57:27.247Z,18.8
2018-10-19T07:58:17.585Z,18.8
2018-10-19T07:59:08.876Z,18.8
2018-10-19T07:59:57.720Z,18.8
2018-10-19T08:00:48.202Z,18.8
2018-10-19T08:01:37.608Z,18.8
2018-10-19T08:03:17.417Z,18.6
2018-10-19T08:04:07.796Z,18.5
2018-10-19T08:04:58.444Z,18.4
2018-10-19T08:05:47.021Z,18.4
2018-10-19T08:06:38.209Z,18.3
2018-10-19T08:07:28.291Z,18.3
2018-10-19T08:08:18.926Z,18.3
2018-10-19T08:09:07.379Z,18.2
2018-10-19T08:09:58.430Z,18.3
2018-10-19T08:10:48.592Z,18.3
2018-10-19T08:11:40.533Z,18.3
2018-10-19T08:12:28.364Z,18.3
2018-10-19T08:13:17.707Z,18.4
2018-10-19T08:14:10.187Z,18.4
2018-10-19T08:14:58.278Z,18.4
2018-10-19T08:15:48.929Z,18.4
2018-10-19T08:16:39.003Z,18.4
2018-10-19T08:17:28.481Z,18.4
2018-10-19T08:18:19.053Z,18.4
2018-10-19T08:19:08.868Z,18.4
2018-10-19T08:19:58.194Z,18.5
2018-10-19T08:20:48.785Z,18.4
2018-10-19T08:21:39.059Z,18.4
2018-10-19T08:22:28.621Z,18.4
2018-10-19T08:23:20.089Z,18.4
2018-10-19T08:24:09.240Z,18.4
2018-10-19T08:24:59.308Z,18.4
2018-10-19T08:25:49.623Z,18.4
2018-10-19T08:26:39.203Z,18.4
2018-10-19T08:27:32.036Z,18.4
2018-10-19T08:28:19.265Z,18.4
2018-10-19T08:29:11.368Z,18.5
2018-10-19T08:29:59.385Z,18.5
2018-10-19T08:30:49.167Z,18.6
2018-10-19T08:31:39.613Z,18.6
2018-10-19T08:32:29.909Z,18.6
2018-10-19T08:33:20.162Z,18.6
2018-10-19T08:34:09.727Z,18.6
2018-10-19T08:35:00.880Z,18.6
2018-10-19T08:35:49.874Z,18.6
2018-10-19T08:40:50.814Z,18.8
2018-10-19T08:41:42.080Z,18.8
2018-10-19T08:42:30.636Z,18.8
2018-10-19T08:43:22.361Z,18.8
2018-10-19T08:44:10.199Z,18.8
2018-10-19T08:45:00.782Z,18.8
2018-10-19T08:45:49.789Z,18.8
2018-10-19T08:46:40.704Z,18.8
2018-10-19T08:47:30.891Z,18.8
2018-10-19T08:48:20.506Z,18.8
2018-10-19T08:49:11.420Z,18.8
2018-10-19T08:50:00.659Z,18.8
2018-10-19T08:50:50.238Z,18.8
2018-10-19T08:51:40.820Z,18.8
2018-10-19T08:52:31.419Z,18.8
2018-10-19T09:09:02.438Z,18.9
2018-10-19T09:09:51.430Z,18.9
2018-10-19T09:10:42.229Z,18.9
2018-10-19T09:11:33.046Z,18.9
2018-10-19T09:12:22.531Z,18.9
2018-10-19T09:13:11.854Z,18.9
2018-10-19T09:14:02.373Z,18.9
2018-10-19T09:14:51.898Z,18.9
2018-10-19T09:15:42.179Z,18.9
2018-10-19T09:16:32.282Z,18.9
2018-10-19T09:17:23.728Z,18.9
2018-10-19T09:18:12.400Z,18.9
2018-10-19T09:19:03.559Z,18.9
2018-10-19T09:19:51.882Z,18.9
2018-10-19T09:20:41.681Z,19
2018-10-19T09:21:32.368Z,19
2018-10-19T09:22:22.948Z,19
2018-10-19T09:23:13.936Z,19
2018-10-19T09:24:02.751Z,18.9
2018-10-19T09:24:52.359Z,19
2018-10-19T09:25:42.406Z,18.9
2018-10-19T09:26:32.657Z,19
2018-10-19T09:27:23.527Z,19
2018-10-19T09:28:13.085Z,19
2018-10-19T09:29:04.615Z,19
2018-10-19T09:29:53.007Z,19
2018-10-19T09:30:43.307Z,19
2018-10-19T09:31:32.768Z,19
2018-10-19T09:32:22.716Z,19
2018-10-19T09:33:15.269Z,19
2018-10-19T09:34:02.949Z,19
2018-10-19T09:34:53.402Z,19
2018-10-19T09:35:45.354Z,19
2018-10-19T09:36:38.355Z,19
2018-10-19T09:37:22.643Z,19
2018-10-19T09:38:13.065Z,18.9
2018-10-19T09:39:03.568Z,19
2018-10-19T09:39:54.229Z,19
2018-10-19T09:40:44.274Z,19
2018-10-19T09:41:34.436Z,18.9
2018-10-19T09:42:23.968Z,19
2018-10-19T09:43:15.310Z,19
2018-10-19T09:44:04.548Z,18.9
2018-10-19T09:44:54.871Z,18.9
2018-10-19T09:45:44.438Z,19
2018-10-19T09:46:34.225Z,19
2018-10-19T09:47:24.935Z,19
2018-10-19T09:48:14.624Z,19
2018-10-19T09:49:05.969Z,18.9
2018-10-19T09:49:55.205Z,19
2018-10-19T09:50:45.076Z,19
2018-10-19T09:51:34.900Z,19
2018-10-19T09:52:24.918Z,19
2018-10-19T09:53:16.359Z,19
2018-10-19T09:54:04.173Z,19
2018-10-19T09:54:54.885Z,19
2018-10-19T09:55:44.545Z,18.9
2018-10-19T09:56:34.936Z,19
2018-10-19T09:57:25.325Z,19
2018-10-19T09:58:15.055Z,19
2018-10-19T09:59:06.062Z,19
2018-10-19T09:59:54.883Z,19
2018-10-19T10:00:45.792Z,19
2018-10-19T10:01:35.325Z,19
2018-10-19T10:02:25.422Z,19
2018-10-19T10:03:18.336Z,19
2018-10-19T10:04:06.281Z,19
2018-10-19T10:04:56.529Z,19
2018-10-19T10:05:46.286Z,19
2018-10-19T10:06:35.775Z,19
2018-10-19T10:07:25.790Z,19
2018-10-19T10:08:16.154Z,19
2018-10-19T10:09:07.652Z,19
2018-10-19T10:09:55.714Z,19
2018-10-19T10:10:45.401Z,19
2018-10-19T10:11:36.169Z,19
2018-10-19T10:12:26.506Z,19
2018-10-19T10:13:17.851Z,19
2018-10-19T10:14:05.694Z,19
2018-10-19T10:14:58.937Z,19
2018-10-19T10:15:47.770Z,19
2018-10-19T10:16:36.594Z,19
2018-10-19T10:17:26.530Z,19
2018-10-19T10:18:15.997Z,19
2018-10-19T10:19:08.033Z,19
2018-10-19T10:19:56.990Z,19
2018-10-19T10:20:47.834Z,19
2018-10-19T10:21:36.249Z,19
2018-10-19T10:22:26.879Z,19
2018-10-19T10:23:17.161Z,19
2018-10-19T10:24:07.301Z,19
2018-10-19T10:24:58.523Z,19
2018-10-19T10:25:47.081Z,19
2018-10-19T10:26:36.877Z,19
2018-10-19T10:27:26.943Z,19
2018-10-19T10:28:18.915Z,19
2018-10-19T10:29:07.921Z,19
2018-10-19T10:29:57.707Z,19
2018-10-19T10:30:47.259Z,19
2018-10-19T10:31:38.090Z,19
2018-10-19T10:32:29.541Z,19
2018-10-19T10:33:17.145Z,19
2018-10-19T10:34:08.145Z,19
2018-10-19T10:34:58.048Z,19
2018-10-19T10:35:48.381Z,19
2018-10-19T10:36:38.696Z,19
2018-10-19T10:37:27.960Z,19
2018-10-19T10:38:18.050Z,19
2018-10-19T10:39:11.929Z,19
2018-10-19T10:39:58.704Z,19
2018-10-19T10:40:48.519Z,19
2018-10-19T10:41:39.126Z,19
2018-10-19T10:42:28.075Z,19
2018-10-19T10:43:19.289Z,19
2018-10-19T10:44:08.461Z,19
2018-10-19T10:44:58.834Z,19
2018-10-19T10:45:48.345Z,19
2018-10-19T10:46:39.200Z,19
2018-10-19T10:47:28.739Z,19.1
2018-10-19T10:48:18.229Z,19
2018-10-19T10:49:10.469Z,19
2018-10-19T10:49:58.634Z,19.1
2018-10-19T10:50:49.302Z,19
2018-10-19T10:51:38.729Z,19
2018-10-19T10:52:29.652Z,19
2018-10-19T10:53:18.863Z,19.1
2018-10-19T10:54:08.378Z,19
2018-10-19T10:54:59.938Z,19
2018-10-19T10:55:49.488Z,19.1
2018-10-19T10:56:40.154Z,19
2018-10-19T10:57:29.449Z,19
2018-10-19T10:58:20.501Z,19.1
2018-10-19T10:59:09.601Z,19.1
2018-10-19T11:00:00.194Z,19
2018-10-19T11:00:49.728Z,19
2018-10-19T11:01:39.541Z,19
2018-10-19T11:02:30.895Z,19
2018-10-19T11:03:20.181Z,19
2018-10-19T11:04:11.401Z,19.1
2018-10-19T11:04:59.174Z,19
2018-10-19T11:05:49.606Z,19
2018-10-19T11:06:40.424Z,19
2018-10-19T11:07:35.038Z,19
2018-10-19T11:08:20.896Z,19
2018-10-19T11:09:10.081Z,19
2018-10-19T11:10:01.271Z,19
2018-10-19T11:10:50.761Z,19
2018-10-19T11:11:40.596Z,19.1
2018-10-19T11:12:30.865Z,19.1
2018-10-19T11:13:20.722Z,19.1
2018-10-19T11:14:11.014Z,19.1
2018-10-19T11:15:00.550Z,19
2018-10-19T11:15:51.469Z,19.1
2018-10-19T11:16:40.650Z,19.1
2018-10-19T11:17:31.715Z,19.1
2018-10-19T11:18:20.814Z,19.1
2018-10-19T11:19:13.084Z,19.1
2018-10-19T11:20:00.779Z,19.1
2018-10-19T11:20:51.274Z,19.1
2018-10-19T11:21:41.875Z,19.1
2018-10-19T11:22:31.365Z,19.1
2018-10-19T11:23:21.446Z,19.1
2018-10-19T11:24:13.091Z,19.1
2018-10-19T11:25:02.592Z,19.1
2018-10-19T11:25:51.610Z,19.1
2018-10-19T11:26:41.948Z,19.1
2018-10-19T11:27:32.232Z,19.1
2018-10-19T11:28:22.615Z,19.1
2018-10-19T11:29:12.084Z,19.1
2018-10-19T11:30:01.636Z,19.1
2018-10-19T11:30:53.595Z,19.1
2018-10-19T11:31:42.046Z,19.1
2018-10-19T11:32:32.384Z,19.1
2018-10-19T11:33:22.454Z,19.1
2018-10-19T11:34:13.371Z,19.1
2018-10-19T11:35:01.743Z,19.1
2018-10-19T11:35:52.695Z,19.1
2018-10-19T11:36:42.934Z,19.1
2018-10-19T11:37:33.072Z,19.1
2018-10-19T11:38:22.824Z,19.1
2018-10-19T11:39:12.923Z,19.1
2018-10-19T11:40:04.015Z,19.1
2018-10-19T11:40:52.793Z,19.1
2018-10-19T11:41:42.872Z,19.1
2018-10-19T11:42:32.862Z,19.1
2018-10-19T11:43:24.172Z,19.1
2018-10-19T11:44:12.445Z,19.1
2018-10-19T11:45:03.143Z,19.1
2018-10-19T11:45:52.723Z,19.1
2018-10-19T11:46:42.268Z,19.1
2018-10-19T11:47:33.004Z,19.1
2018-10-19T11:48:22.562Z,19.1
2018-10-19T11:49:14.150Z,19.1
2018-10-19T11:50:03.238Z,19.1
2018-10-19T11:50:52.956Z,19.1
2018-10-19T11:51:44.084Z,19.1
2018-10-19T11:52:32.995Z,19.1
2018-10-19T11:53:23.897Z,19.1
2018-10-19T11:54:14.328Z,19.1
2018-10-19T11:55:05.291Z,19.1
2018-10-19T11:55:52.998Z,19.1
2018-10-19T11:56:44.153Z,19.1
2018-10-19T11:57:34.548Z,19.1
2018-10-19T11:58:24.540Z,19.1
2018-10-19T11:59:13.996Z,19.1
2018-10-19T12:00:04.449Z,19.1
2018-10-19T12:00:54.481Z,19.1
2018-10-19T12:01:44.583Z,19.1
2018-10-19T12:02:34.843Z,19.1
2018-10-19T12:03:25.323Z,19.1
2018-10-19T12:04:16.521Z,19.1
2018-10-19T12:05:04.550Z,19.1
2018-10-19T12:05:54.594Z,19.1
2018-10-19T12:06:44.907Z,19.1
2018-10-19T12:07:35.215Z,19.1
2018-10-19T12:08:25.435Z,19.1
2018-10-19T12:09:16.014Z,19.1
2018-10-19T12:10:05.548Z,19.1
2018-10-19T12:10:55.936Z,19.1
2018-10-19T12:11:45.608Z,19.1
2018-10-19T12:12:35.692Z,19.1
2018-10-19T12:13:25.098Z,19.1
2018-10-19T12:14:15.270Z,19.1
2018-10-19T12:15:06.242Z,19.1
2018-10-19T12:15:55.762Z,19.1
2018-10-19T12:16:48.616Z,19.1
2018-10-19T12:17:35.963Z,19.1
2018-10-19T12:18:25.741Z,19.1
2018-10-19T12:19:15.978Z,19.1
2018-10-19T12:20:05.562Z,19.1
2018-10-19T12:20:56.708Z,19.1
2018-10-19T12:21:46.044Z,19.1
2018-10-19T12:22:36.389Z,19.1
2018-10-19T12:23:25.326Z,19.1
2018-10-19T12:24:16.734Z,19.1
2018-10-19T12:25:07.551Z,19.1
2018-10-19T12:25:56.737Z,19.1
2018-10-19T12:26:46.710Z,19.1